GIBOR1 LLEK-LLEK

Flight info

Callsign GIBOR1
Flight time 0h 18m
Altitude 10000
Route /
Aircraft F15/M-SDGRWY/XPDR

Departure

Time 2026-04-20 16:28
Airport Tel Nof Air Base (LLEK)

Arrival

Time 2026-04-20 16:47
Airport Tel Nof Air Base (LLEK)
Time Latitude Longitude Altitude Speed Heading
2026-04-20 16:08 31.84703 34.81544 180 ft 0 kts 120°
2026-04-20 16:23 31.84684 34.81607 179 ft 17 kts 97°
2026-04-20 16:24 31.84673 34.81724 182 ft 12 kts 98°
2026-04-20 16:24 31.84613 34.81733 182 ft 16 kts 225°
2026-04-20 16:24 31.84525 34.81653 179 ft 17 kts 187°
2026-04-20 16:24 31.84364 34.81645 178 ft 28 kts 183°
2026-04-20 16:25 31.84106 34.81631 178 ft 43 kts 183°
2026-04-20 16:25 31.83846 34.81616 180 ft 31 kts 182°
2026-04-20 16:25 31.83645 34.81604 183 ft 27 kts 183°
2026-04-20 16:25 31.83452 34.81592 186 ft 32 kts 183°
2026-04-20 16:26 31.83196 34.81576 188 ft 43 kts 184°
2026-04-20 16:26 31.82907 34.81560 178 ft 38 kts 183°
2026-04-20 16:26 31.82667 34.81546 177 ft 32 kts 183°
2026-04-20 16:26 31.82560 34.81577 177 ft 15 kts 93°
2026-04-20 16:27 31.82559 34.81695 180 ft 15 kts 68°
2026-04-20 16:27 31.82635 34.81746 181 ft 6 kts
2026-04-20 16:27 31.82683 34.81748 179 ft 58 kts
2026-04-20 16:27 31.83805 34.81798 265 ft 204 kts
2026-04-20 16:28 31.85221 34.81889 691 ft 235 kts
2026-04-20 16:28 31.86618 34.82870 1766 ft 256 kts 73°
2026-04-20 16:28 31.86116 34.84865 2514 ft 274 kts 144°
2026-04-20 16:28 31.84348 34.85602 3300 ft 267 kts 185°
2026-04-20 16:29 31.82771 34.84653 3971 ft 262 kts 243°
2026-04-20 16:29 31.82447 34.83316 4650 ft 243 kts 274°
2026-04-20 16:29 31.83674 34.81308 6605 ft 258 kts 355°
2026-04-20 16:29 31.85069 34.82555 7727 ft 294 kts 85°
2026-04-20 16:30 31.84204 34.84598 8243 ft 299 kts 165°
2026-04-20 16:30 31.82398 34.84059 8741 ft 283 kts 245°
2026-04-20 16:30 31.82422 34.81858 9071 ft 280 kts 298°
2026-04-20 16:30 31.83452 34.79962 8964 ft 277 kts 306°
2026-04-20 16:31 31.84619 34.78172 9037 ft 276 kts 309°
2026-04-20 16:31 31.85848 34.76422 9084 ft 279 kts 309°
2026-04-20 16:31 31.87091 34.74688 9057 ft 277 kts 310°
2026-04-20 16:31 31.88322 34.72961 9095 ft 273 kts 309°
2026-04-20 16:32 31.89473 34.71163 9197 ft 272 kts 305°
2026-04-20 16:32 31.90531 34.69284 9151 ft 274 kts 303°
2026-04-20 16:32 31.91619 34.67398 9116 ft 273 kts 305°
2026-04-20 16:32 31.92978 34.65874 8898 ft 282 kts 345°
2026-04-20 16:33 31.94934 34.66132 7200 ft 306 kts 20°
2026-04-20 16:33 31.96939 34.67309 5152 ft 334 kts 25°
2026-04-20 16:33 31.99056 34.68440 3514 ft 333 kts 22°
2026-04-20 16:33 32.01131 34.69546 2034 ft 330 kts 23°
2026-04-20 16:34 32.03152 34.70694 1041 ft 313 kts 22°
2026-04-20 16:34 32.05052 34.71702 534 ft 287 kts 18°
2026-04-20 16:34 32.06677 34.72789 352 ft 256 kts 72°
2026-04-20 16:34 32.06731 34.74055 308 ft 192 kts 94°
2026-04-20 16:35 32.06704 34.74616 252 ft 194 kts 92°
2026-04-20 16:35 32.07728 34.75976 546 ft 358 kts 292°
2026-04-20 16:35 32.07030 34.74119 791 ft 299 kts 152°
2026-04-20 16:36 32.07062 34.76078 389 ft 300 kts 24°
2026-04-20 16:36 32.08921 34.75809 646 ft 257 kts 318°
2026-04-20 16:36 32.09232 34.74230 1336 ft 195 kts 227°
2026-04-20 16:36 32.07792 34.73338 2270 ft 266 kts 207°
2026-04-20 16:37 32.06674 34.71840 2823 ft 251 kts 300°
2026-04-20 16:37 32.07181 34.73038 461 ft 339 kts 108°
2026-04-20 16:37 32.06432 34.75623 634 ft 281 kts 107°
2026-04-20 16:37 32.06919 34.75548 2893 ft 132 kts 313°
2026-04-20 16:38 32.08455 34.75484 1135 ft 282 kts
2026-04-20 16:38 32.09694 34.73985 965 ft 298 kts 266°
2026-04-20 16:38 32.08280 34.72565 821 ft 324 kts 148°
2026-04-20 16:38 32.06992 34.74641 488 ft 310 kts 119°
2026-04-20 16:39 32.05883 34.75792 3419 ft 242 kts 224°
2026-04-20 16:39 32.04752 34.74378 2798 ft 211 kts 241°
2026-04-20 16:39 32.04694 34.72896 2653 ft 203 kts 306°
2026-04-20 16:39 32.06014 34.72044 2515 ft 266 kts
2026-04-20 16:40 32.07322 34.71032 2648 ft 258 kts 262°
2026-04-20 16:40 32.06212 34.69525 2892 ft 262 kts 207°
2026-04-20 16:40 32.04529 34.68935 4116 ft 250 kts 195°
2026-04-20 16:40 32.02752 34.68451 5586 ft 266 kts 197°
2026-04-20 16:41 32.00948 34.67893 6880 ft 278 kts 198°
2026-04-20 16:41 31.99052 34.67267 7796 ft 287 kts 199°
2026-04-20 16:41 31.97180 34.66554 8386 ft 297 kts 199°
2026-04-20 16:41 31.95209 34.65929 8247 ft 294 kts 196°
2026-04-20 16:42 31.93228 34.65416 7924 ft 290 kts 187°
2026-04-20 16:42 31.91332 34.66150 7365 ft 301 kts 134°
2026-04-20 16:42 31.90103 34.68107 6447 ft 296 kts 124°
2026-04-20 16:42 31.88969 34.70114 6106 ft 278 kts 124°
2026-04-20 16:43 31.87892 34.72025 7018 ft 292 kts 119°
2026-04-20 16:43 31.87155 34.74231 7502 ft 296 kts 101°
2026-04-20 16:43 31.86895 34.76660 7156 ft 300 kts 94°
2026-04-20 16:43 31.86711 34.79166 5637 ft 316 kts 94°
2026-04-20 16:44 31.86531 34.81806 4155 ft 326 kts 93°
2026-04-20 16:44 31.86287 34.84433 3050 ft 319 kts 103°
2026-04-20 16:44 31.85239 34.86596 2494 ft 291 kts 141°
2026-04-20 16:44 31.83627 34.87722 2404 ft 271 kts 155°
2026-04-20 16:45 31.81846 34.88726 2360 ft 265 kts 157°
2026-04-20 16:45 31.80175 34.88751 2050 ft 259 kts 224°
2026-04-20 16:45 31.79453 34.86969 1774 ft 247 kts 275°
2026-04-20 16:45 31.80420 34.85506 1244 ft 255 kts 331°
2026-04-20 16:46 31.81852 34.84585 584 ft 199 kts 328°
2026-04-20 16:46 31.82814 34.83928 248 ft 148 kts 331°
2026-04-20 16:46 31.83595 34.83412 186 ft 91 kts 330°
2026-04-20 16:46 31.84049 34.83119 175 ft 62 kts 331°
2026-04-20 16:47 31.84372 34.82908 173 ft 47 kts 332°
2026-04-20 16:47 31.84612 34.82751 173 ft 33 kts 331°
2026-04-20 16:47 31.84733 34.82662 171 ft 10 kts 291°
2026-04-20 16:47 31.84734 34.82554 171 ft 17 kts 268°
2026-04-20 16:48 31.84730 34.82434 172 ft 13 kts 268°
2026-04-20 16:48 31.84727 34.82336 175 ft 11 kts 266°
2026-04-20 16:48 31.84721 34.82160 177 ft 30 kts 266°
2026-04-20 16:48 31.84665 34.81965 176 ft 21 kts 242°
2026-04-20 16:49 31.84662 34.81860 179 ft 12 kts 266°
2026-04-20 16:49 31.84630 34.81752 180 ft 15 kts 225°
2026-04-20 16:49 31.84571 34.81667 178 ft 13 kts 290°
2026-04-20 16:49 31.84613 34.81581 176 ft 27 kts 300°
2026-04-20 16:50 31.84678 34.81498 177 ft 9 kts 26°
2026-04-20 16:50 31.84701 34.81546 178 ft 0 kts 117°